Flight Track Log - Related Links

Times and Time Zones

All times are in EDT time to prevent confusion due to time zone crossing. See the UAL395 flight status page for this flight to view local times or setup timezone preferences in your user account.

Time Position Orientation Groundspeed Altitude Reporting Facility
EDT Latitude Longitude Course Direction KTS MPH feet Rate Location/Type
Wed 11:44:05 AM 42.3500 -71.0167 240° Southwest 145 167 800  Level KA90
Wed 11:45:05 AM 42.3333 -71.0667 246° West 200 230 3,200 2,625 Climbing KA90
Wed 11:46:00 AM 42.4142 -70.7500 180° South  Level FlightAware Approximate
Wed 11:46:29 AM 42.2639 -71.1525 222° Southwest 221 254 7,100  Level Boston Center
Wed 11:47:00 AM 42.3342 -70.7235 172° South  Level FlightAware Approximate
Wed 11:47:26 AM 42.2442 -71.2453 254° West 239 275 11,100  Level Boston Center
Wed 11:48:00 AM 42.2666 -70.7668 228° Southwest  Level FlightAware Approximate
Wed 11:48:27 AM 42.2222 -71.3494 254° West 274 315 12,400  Level Boston Center
Wed 11:49:00 AM 42.2159 -70.8574 240° Southwest  Level FlightAware Approximate
Wed 11:49:27 AM 42.1961 -71.4761 254° West 333 383 15,400  Level Boston Center
Wed 11:50:28 AM 42.1742 -71.5828 255° West 338 389 16,000 295 Climbing Boston Center
Wed 11:51:29 AM 42.1500 -71.7008 255° West 333 383 16,000  Level Boston Center
Wed 11:52:29 AM 42.1236 -71.8300 255° West 333 383 16,000 51 Level Boston Center
Wed 11:53:27 AM 42.0992 -71.9392 253° West 333 383 16,100 51 Climbing Boston Center
Wed 11:54:27 AM 42.0725 -72.0708 255° West 333 383 16,100  Level Boston Center
Wed 11:55:27 AM 42.0500 -72.1772 254° West 333 383 16,100  Level Boston Center
Wed 11:56:28 AM 42.0231 -72.3031 254° West 333 383 16,100  Level Boston Center
Wed 11:57:28 AM 42.0003 -72.4094 254° West 333 383 16,100  Level Boston Center
Wed 11:58:29 AM 41.9731 -72.5406 254° West 333 383 16,100  Level Boston Center
Wed 11:59:27 AM 41.9500 -72.6467 254° West 333 383 16,100  Level Boston Center
Wed 12:00:27 PM 41.9289 -72.7414 253° West 333 383 16,100  Level Boston Center
Wed 12:01:28 PM 41.8953 -72.8808 252° West 333 383 16,100  Level Boston Center
Wed 12:02:28 PM 41.8675 -73.0061 253° West 333 383 16,100  Level Boston Center
Wed 12:03:28 PM 41.8397 -73.1200 252° West 333 383 16,100  Level Boston Center
Wed 12:04:41 PM 41.8056 -73.2617 252° West 328 377 16,100  Level Boston Center
Wed 12:05:40 PM 41.7756 -73.3753 251° West 328 377 16,100 -50 Level Boston Center
Wed 12:06:42 PM 41.7517 -73.4781 253° West 328 377 16,000 -605 Descending Boston Center
Wed 12:07:39 PM 41.7214 -73.6028 252° West 323 372 14,900 -1,017 Descending Boston Center
Wed 12:08:40 PM 41.6953 -73.7022 251° West 323 372 14,000 -992 Descending Boston Center
Wed 12:09:40 PM 41.6689 -73.8158 253° West 311 358 12,900 -1,424 Descending Boston Center
Wed 12:10:38 PM 41.6511 -73.9097 256° West 294 338 11,200 -1,450 Descending Boston Center
Wed 12:11:40 PM 41.6453 -74.0153 266° West 275 316 10,000 -1,279 Descending Boston Center
Wed 12:12:40 PM 41.6028 -74.0864 231° Southwest 262 302 8,600 -1,426 Descending Boston Center
Wed 12:13:42 PM 41.5536 -74.1656 230° Southwest 278 320 7,100 -800 Descending Boston Center
Wed 12:14:40 PM 41.5000 -74.2528 231° Southwest 284 327 7,000 -38 Descending Boston Center
Wed 12:16:20 PM 41.4000 -74.3500 216° Southwest 281 323 7,000  Level New York TRACON
Wed 12:17:26 PM 41.3167 -74.4167 211° Southwest 284 327 7,000  Level New York TRACON
Wed 12:18:20 PM 41.2667 -74.4500 207° Southwest 284 327 7,000 -333 Level New York TRACON
Wed 12:19:14 PM 41.2000 -74.4833 201° Southwest 288 331 6,400 -1,000 Descending New York TRACON
Wed 12:20:20 PM 41.1000 -74.5167 194° South 291 335 5,000 -700 Descending New York TRACON
Wed 12:21:14 PM 41.0333 -74.5500 201° Southwest 290 334 5,000  Level New York TRACON
Wed 12:22:20 PM 40.9500 -74.5500 180° South 290 334 5,000  Level New York TRACON
Wed 12:23:14 PM 40.8667 -74.5667 189° South 295 339 5,000  Level New York TRACON
Wed 12:24:14 PM 40.8000 -74.5667 180° South 289 333 5,000  Level New York TRACON
Wed 12:25:14 PM 40.7167 -74.5833 189° South 291 335 5,000  Level New York TRACON
Wed 12:26:14 PM 40.6333 -74.5333 156° South 295 339 5,000 50 Level New York TRACON
Wed 12:27:14 PM 40.5667 -74.5000 159° South 293 337 5,100 -400 Climbing New York TRACON
Wed 12:28:14 PM 40.5000 -74.4333 143° Southeast 295 339 4,200 -800 Descending New York TRACON
Wed 12:29:14 PM 40.4667 -74.3500 118° Southeast 251 289 3,500 -571 Descending New York TRACON
Wed 12:30:20 PM 40.5000 -74.2833 57° Northeast 193 222 3,000 -238 Descending New York TRACON
Wed 12:31:20 PM 40.5333 -74.2667 21° North 184 212 3,000 -421 Level New York TRACON
Wed 12:32:14 PM 40.5833 -74.2333 27° Northeast 182 209 2,200 -900 Descending New York TRACON
Wed 12:33:20 PM 40.6333 -74.2000 27° Northeast 171 197 1,200 -857 Descending New York TRACON
Wed 12:34:20 PM 40.6667 -74.1833 21° North 134 154 400 -800 Descending New York TRACON

Login

Don't have an account? Register now (free) for customized features, flight alerts, and more!